Latest Coastal Weather Observations for Rundle Island

IDQ60701

Issued at 4:05 am EST Saturday 30 August 2014 (issued every 10 minutes, with the page automatically refreshed every 10 minutes)

About coastal observations | Map of coastal stations | Coastal observations for QLD | Marine services | Other Formats
Station Details ID: 039322 Name: RUNDLE ISLAND Lat: -23.53 Lon: 151.28 Height: 19.8 m
Data from the previous 72 hours. | See also: Recent months at Rundle Island
Date/Time
EST
Temp

°C
Wind Pressure Rain
since 9am
mm
Weather Cloud Vis
km
Sea
Height
m
Swell
Dir
 
Speed
knots
Gust
knots
hPa Trend Height
m
Period
s
Dir
30/04:00am 17.5 S 8 10 1019.1 - - - - - - - - -
30/03:30am 17.5 S 9 10 1019.2 - - - - - - - - -
30/03:00am 17.5 S 9 11 1019.3 - - - - - - - - -
30/02:30am 17.6 S 9 11 1019.5 - - - - - - - - -
30/02:00am 17.7 S 10 12 1019.5 - - - - - - - - -
30/01:30am 17.9 S 11 13 1019.7 - - - - - - - - -
30/01:00am 18.7 S 11 13 1019.6 - - - - - - - - -
30/12:30am 19.6 SE 7 8 1019.6 - - - - - - - - -
30/12:00am 19.3 SE 6 7 1019.4 - - - - - - - - -
 
Date/Time
EST
Temp

°C
Wind Pressure Rain
since 9am
mm
Weather Cloud Vis
km
Sea
Height
m
Swell
Dir
 
Speed
knots
Gust
knots
hPa Trend Height
m
Period
s
Dir
29/11:30pm 19.5 ESE 6 7 1019.5 - - - - - - - - -
29/11:00pm 19.3 ESE 6 7 1019.5 - - - - - - - - -
29/10:30pm 19.3 ESE 7 9 1019.6 - - - - - - - - -
29/10:00pm 19.3 ESE 7 8 1019.7 - - - - - - - - -
29/09:30pm 19.3 ESE 8 9 1019.9 - - - - - - - - -
29/09:00pm 19.4 ESE 7 8 1020.1 - - - - - - - - -
29/08:30pm 19.1 ESE 6 7 1020.3 - - - - - - - - -
29/08:00pm 19.3 E 6 7 1020.2 - - - - - - - - -
29/07:30pm 19.2 E 5 6 1019.8 - - - - - - - - -
29/07:00pm 19.1 ESE 5 8 1019.6 - - - - - - - - -
29/06:30pm 19.3 E 8 9 1019.1 - - - - - - - - -
29/06:00pm 19.2 E 9 9 1018.8 - - - - - - - - -
29/05:30pm 19.3 E 9 11 1018.7 - - - - - - - - -
29/05:00pm 19.7 ENE 7 9 1018.6 - - - - - - - - -
29/04:30pm 19.5 E 11 13 1018.4 - - - - - - - - -
29/04:00pm 19.6 E 13 15 1018.3 - - - - - - - - -
29/03:30pm 19.6 E 12 14 1018.5 - - - - - - - - -
29/03:00pm 19.5 E 12 14 1018.8 - - - - - - - - -
29/02:30pm 19.4 E 11 12 1019.0 - - - - - - - - -
29/02:00pm 19.5 E 11 13 1019.2 - - - - - - - - -
29/01:30pm 19.7 ESE 11 13 1019.5 - - - - - - - - -
29/01:00pm 19.5 SE 10 12 1020.0 - - - - - - - - -
29/12:30pm 19.5 SE 13 15 1020.5 - - - - - - - - -
29/12:00pm 19.2 SE 13 15 1021.0 - - - - - - - - -
29/11:30am 19.4 SSE 12 14 1021.4 - - - - - - - - -
29/11:00am 19.3 SSE 14 16 1021.9 - - - - - - - - -
29/10:30am 18.9 SSE 13 15 1022.0 - - - - - - - - -
29/10:00am 18.1 SSE 16 19 1022.0 - - - - - - - - -
29/09:30am 17.9 SSE 17 21 1021.9 - - - - - - - - -
29/09:00am 18.1 SSE 17 19 1022.1 - - - - - - - - -
29/08:30am 18.0 SSE 17 21 1022.0 - - - - - - - - -
29/08:00am 17.8 SSE 18 20 1021.8 - - - - - - - - -
29/07:30am 17.9 SSE 19 22 1021.4 - - - - - - - - -
29/07:00am 17.8 SSE 18 21 1021.1 - - - - - - - - -
29/06:30am 17.9 SSE 19 22 1020.7 - - - - - - - - -
29/06:00am 17.9 SSE 20 22 1020.4 - - - - - - - - -
29/05:30am 17.9 SSE 21 25 1020.0 - - - - - - - - -
29/05:00am 18.0 SSE 24 27 1019.7 - - - - - - - - -
29/04:30am 18.1 SSE 24 28 1019.6 - - - - - - - - -
29/04:00am 18.4 SSE 25 30 1019.5 - - - - - - - - -
29/03:30am 18.5 SSE 24 28 1019.4 - - - - - - - - -
29/03:00am 18.7 SSE 23 27 1019.3 - - - - - - - - -
29/02:30am 18.6 SSE 23 26 1019.5 - - - - - - - - -
29/02:00am 19.1 SSE 20 23 1019.6 - - - - - - - - -
29/01:30am 19.1 SSE 19 22 1019.6 - - - - - - - - -
29/01:00am 19.3 SSE 16 18 1019.7 - - - - - - - - -
29/12:30am 19.5 SSE 15 18 1019.9 - - - - - - - - -
29/12:00am 19.6 SSE 12 15 1020.1 - - - - - - - - -
 
Date/Time
EST
Temp

°C
Wind Pressure Rain
since 9am
mm
Weather Cloud Vis
km
Sea
Height
m
Swell
Dir
 
Speed
knots
Gust
knots
hPa Trend Height
m
Period
s
Dir
28/11:30pm 19.8 SSE 11 13 1020.1 - - - - - - - - -
28/11:00pm 19.9 SE 12 14 1019.8 - - - - - - - - -
28/10:30pm 19.5 SE 3 3 1019.7 - - - - - - - - -
28/10:00pm 19.5 SE 3 4 1019.7 - - - - - - - - -
28/09:30pm 19.3 ESE 2 3 1019.7 - - - - - - - - -
28/09:00pm 19.4 ESE 3 4 1019.6 - - - - - - - - -
28/08:30pm 19.5 E 4 5 1019.5 - - - - - - - - -
28/08:00pm 19.5 E 6 7 1019.2 - - - - - - - - -
28/07:30pm 19.4 E 5 6 1018.8 - - - - - - - - -
28/07:00pm 19.3 ENE 4 5 1018.4 - - - - - - - - -
28/06:30pm 19.2 ENE 6 7 1017.9 - - - - - - - - -
28/06:00pm 19.3 NNE 4 5 1017.6 - - - - - - - - -
28/05:30pm 19.7 NNE 5 7 1017.1 - - - - - - - - -
28/05:00pm 19.6 N 6 8 1017.0 - - - - - - - - -
28/04:30pm 19.9 NNE 8 9 1016.6 - - - - - - - - -
28/04:00pm 19.8 N 8 10 1016.2 - - - - - - - - -
28/03:30pm 19.6 N 10 11 1015.9 - - - - - - - - -
28/03:00pm 20.4 ENE 9 10 1015.7 - - - - - - - - -
28/02:30pm 20.6 ENE 8 9 1015.8 - - - - - - - - -
28/02:00pm 20.4 E 6 7 1015.6 - - - - - - - - -
28/01:30pm 21.6 E 3 3 1015.8 - - - - - - - - -
28/01:00pm 21.5 CALM 0 3 1016.0 - - - - - - - - -
28/12:30pm 21.2 SE 3 4 1016.4 - - - - - - - - -
28/12:00pm 19.6 SE 6 7 1017.0 - - - - - - - - -
28/11:30am 19.4 SSE 9 11 1017.4 - - - - - - - - -
28/11:00am 19.0 S 14 16 1017.5 - - - - - - - - -
28/10:30am 18.9 SSE 9 11 1017.8 - - - - - - - - -
28/10:00am 18.6 S 8 11 1018.0 - - - - - - - - -
28/09:30am 18.3 S 6 9 1018.2 - - - - - - - - -
28/09:00am 17.1 SW 5 9 1018.3 - - - - - - - - -
28/08:30am 16.4 WSW 6 8 1018.1 - - - - - - - - -
28/08:00am 15.7 WSW 7 10 1018.0 - - - - - - - - -
28/07:30am 15.3 W 5 8 1017.8 - - - - - - - - -
28/07:00am 14.8 WNW 6 7 1017.6 - - - - - - - - -
28/06:30am 14.6 W 6 8 1017.3 - - - - - - - - -
28/06:00am 14.5 W 7 10 1017.1 - - - - - - - - -
28/05:30am 15.0 WSW 9 11 1016.7 - - - - - - - - -
28/05:00am 15.0 W 8 11 1016.3 - - - - - - - - -
28/04:30am 15.4 WSW 8 10 1016.2 - - - - - - - - -
28/04:00am 15.7 W 7 9 1016.3 - - - - - - - - -
28/03:30am 16.0 W 8 10 1016.2 - - - - - - - - -
28/03:00am 16.4 WSW 11 15 1016.2 - - - - - - - - -
28/02:30am 16.2 WSW 9 11 1016.4 - - - - - - - - -
28/02:00am 16.7 SW 10 13 1016.6 - - - - - - - - -
28/01:30am 17.1 SW 13 16 1016.9 - - - - - - - - -
28/01:00am 17.0 WSW 9 13 1016.8 - - - - - - - - -
28/12:30am 18.0 SW 11 14 1016.7 - - - - - - - - -
28/12:00am 18.4 SSW 15 19 1016.7 - - - - - - - - -
 
Date/Time
EST
Temp

°C
Wind Pressure Rain
since 9am
mm
Weather Cloud Vis
km
Sea
Height
m
Swell
Dir
 
Speed
knots
Gust
knots
hPa Trend Height
m
Period
s
Dir
27/11:30pm 18.5 SW 10 14 1016.9 - - - - - - - - -
27/11:00pm 19.1 SW 10 13 1016.6 - - - - - - - - -
27/10:30pm 19.2 SW 7 8 1016.6 - - - - - - - - -
27/10:00pm 18.9 SW 6 7 1016.6 - - - - - - - - -
27/09:30pm 19.2 SW 7 8 1016.6 - - - - - - - - -
27/09:00pm 19.8 SW 10 12 1016.5 - - - - - - - - -
27/08:30pm 19.7 SW 8 10 1016.3 - - - - - - - - -
27/08:00pm 20.1 SW 7 9 1016.1 - - - - - - - - -
27/07:30pm 20.2 W 5 6 1015.8 - - - - - - - - -
27/07:00pm 20.1 NW 4 5 1015.2 - - - - - - - - -
27/06:30pm 20.4 NW 6 8 1014.7 - - - - - - - - -
27/06:00pm 21.6 W 9 11 1014.2 - - - - - - - - -
27/05:30pm 22.3 WSW 14 17 1013.8 - - - - - - - - -
27/05:00pm 21.6 WNW 8 10 1013.5 - - - - - - - - -
27/04:30pm 21.2 NW 13 16 1012.9 - - - - - - - - -
27/04:00pm 21.0 NNW 14 16 1012.6 - - - - - - - - -
27/03:30pm 22.1 NNW 12 16 1012.6 - - - - - - - - -
27/03:00pm 20.6 NNW 13 16 1012.7 - - - - - - - - -
27/02:30pm 20.1 NNW 16 20 1012.7 - - - - - - - - -
27/02:00pm 20.2 NNW 16 18 1013.0 - - - - - - - - -
27/01:30pm 19.7 N 16 17 1013.3 - - - - - - - - -
27/01:00pm 20.1 NNW 13 14 1013.9 - - - - - - - - -
27/12:30pm 19.9 NNW 13 14 1014.4 - - - - - - - - -
27/12:00pm 19.9 NNW 11 13 1014.8 - - - - - - - - -
27/11:30am 19.4 NNW 9 10 1015.4 - - - - - - - - -
27/11:00am 19.1 NNW 9 11 1015.8 - - - - - - - - -
27/10:30am 18.6 NNW 8 10 1016.3 - - - - - - - - -
27/10:00am 18.4 NW 7 10 1016.6 - - - - - - - - -
27/09:30am 18.1 NW 7 9 1016.8 - - - - - - - - -
27/09:00am 18.1 NW 6 7 1016.5 - - - - - - - - -
27/08:30am 17.9 NW 6 6 1016.5 - - - - - - - - -
27/08:00am 17.7 NW 3 4 1016.3 - - - - - - - - -
27/07:30am 17.4 W 2 3 1016.0 - - - - - - - - -
27/07:00am 17.4 WSW 3 4 1015.9 - - - - - - - - -
27/06:30am 17.3 WSW 3 4 1015.7 - - - - - - - - -
27/06:00am 17.4 W 4 6 1015.6 - - - - - - - - -
27/05:30am 17.5 WNW 4 5 1015.2 - - - - - - - - -
27/05:00am 17.2 WSW 3 3 1015.0 - - - - - - - - -
27/04:30am 17.0 WSW 3 5 1014.8 - - - - - - - - -

Other Formats:

Comma delimited format used in spreadsheet applications
http://www.bom.gov.au/fwo/IDQ60701/IDQ60701.94378.axf

JavaScript Object Notation format (JSON) in row-major order
http://www.bom.gov.au/fwo/IDQ60701/IDQ60701.94378.json